Ashland, WV

8:03 AM EDT on August 23, 2019 (GMT -0400)
Larue | | Change Station

Elev 2575 ft 37.33 °N, 81.19 °W | Updated 12 seconds ago

Overcast
Overcast
67.3 °F
Feels Like 67.3 °F
N
1.1
Wind Variable Wind from NE
Gusts 6.0 mph

Today
High -- | Low -- °F
--% Chance of Precip.
Yesterday
High -- | Low -- °F
Precip. -- in
Pressure 30.02 in
Visibility 10.0 miles
Clouds Few 1800 ft
Mostly Cloudy 2600 ft
Overcast 3800 ft
Dew Point 64 °F
Humidity 90%
Rainfall 0.04 in
Snow Depth Not available.
6:48 AM 8:07 PM
Waning Gibbous, 51% visible
METAR KBLF 231152Z AUTO 27008KT 10SM FEW018 BKN026 OVC038 19/17 A3012 RMK AO2 RAE42 SLP165 P0001 60002 70051 T01890172 10211 20183 53005
Pressure 30.02 in
Visibility 10.0 miles
Clouds Few 1800 ft
Mostly Cloudy 2600 ft
Overcast 3800 ft
Dew Point 64 °F
Humidity 90%
Rainfall 0.04 in
Snow Depth Not available.
6:48 AM 8:07 PM
Waning Gibbous, 51% visible
METAR KBLF 231152Z AUTO 27008KT 10SM FEW018 BKN026 OVC038 19/17 A3012 RMK AO2 RAE42 SLP165 P0001 60002 70051 T01890172 10211 20183 53005

Get Severe Weather Alerts

Thanks for signing up!

Be on the lookout for a verification email in your inbox.

You'll start receiving the daily forecast at 6 AM.

×

10-Day Weather Forecast

Almanac

Astronomy

Aug. 23, 2019 Rise Set
Actual Time
Civil Twilight
Nautical Twilight
Astronomical Twilight
Moon
Length of Visible Light
Length of Day
Tomorrow will be .
, % of the Moon is Illuminated

Today's Extremes

State Highs State Lows

Community

WunderPhotos

Category 6

Welcome to Category 6. This is the collective home for Weather Underground's featured writeups by Dr. Jeff Masters (right), Bob Henson (left), Chris Burt, and other regular contributors.

Nearby

Air Quality

  Air Quality AQ Index Pollutant
Not available.

Snow Depth

Station Depth Elevation

Earthquake Activity

City Distance Mag. Time & Date
Minimum magnitude displayed is 2.5.

Coastal Water Temperatures

Place Temperature

Stations

Nearby Weather Stations

Station Location Temp. Windchill Dew Point Humidity Wind Precip. Elev Updated Type
                   

Watches & Warnings

There are currently no watches in effect.